createdAt,value
2018-06-17T00:05:17.217Z,99.90
2018-06-17T00:07:45.512Z,99.90
2018-06-17T00:10:13.816Z,99.90
2018-06-17T00:12:42.115Z,99.90
2018-06-17T00:15:10.398Z,99.90
2018-06-17T00:17:38.760Z,99.90
2018-06-17T00:20:07.031Z,99.90
2018-06-17T00:22:35.307Z,99.90
2018-06-17T00:25:03.719Z,99.90
2018-06-17T00:27:32.014Z,99.90
2018-06-17T00:30:00.297Z,99.90
2018-06-17T00:32:28.590Z,99.90
2018-06-17T00:34:56.839Z,99.90
2018-06-17T00:37:25.124Z,99.90
2018-06-17T00:42:21.484Z,99.90
2018-06-17T00:47:17.866Z,99.90
2018-06-17T00:49:46.120Z,99.90
2018-06-17T00:52:14.446Z,99.90
2018-06-17T00:54:42.730Z,99.90
2018-06-17T00:57:22.256Z,99.90
2018-06-17T00:59:50.538Z,99.90
2018-06-17T01:02:18.852Z,99.90
2018-06-17T01:04:47.150Z,99.90
2018-06-17T01:07:15.468Z,99.90
2018-06-17T01:09:43.727Z,99.90
2018-06-17T01:12:12.002Z,99.90
2018-06-17T01:14:40.323Z,99.90
2018-06-17T01:17:08.660Z,99.90
2018-06-17T01:19:36.996Z,99.90
2018-06-17T01:22:05.292Z,99.90
2018-06-17T01:24:33.574Z,99.90
2018-06-17T01:27:01.936Z,99.90
2018-06-17T01:29:30.240Z,99.90
2018-06-17T01:31:58.536Z,99.90
2018-06-17T01:34:26.820Z,99.90
2018-06-17T01:36:55.114Z,99.90
2018-06-17T01:39:23.418Z,99.90
2018-06-17T01:41:51.706Z,99.90
2018-06-17T01:44:19.967Z,99.90
2018-06-17T01:46:48.294Z,99.90
2018-06-17T01:49:16.560Z,99.90
2018-06-17T01:51:44.855Z,99.90
2018-06-17T01:54:13.152Z,99.90
2018-06-17T01:56:41.498Z,99.90
2018-06-17T01:59:09.798Z,99.90
2018-06-17T02:04:11.475Z,99.90
2018-06-17T02:09:18.708Z,99.90
2018-06-17T02:11:52.412Z,99.90
2018-06-17T02:14:26.018Z,99.90
2018-06-17T02:16:54.314Z,99.90
2018-06-17T02:19:22.570Z,99.90
2018-06-17T02:21:50.840Z,99.90
2018-06-17T02:26:47.268Z,99.90
2018-06-17T02:29:15.524Z,99.90
2018-06-17T02:31:43.825Z,99.90
2018-06-17T02:34:12.174Z,99.90
2018-06-17T02:36:40.434Z,99.90
2018-06-17T02:39:09.524Z,99.90
2018-06-17T02:41:37.977Z,99.90
2018-06-17T02:44:06.440Z,99.90
2018-06-17T02:47:42.601Z,99.90
2018-06-17T02:50:16.239Z,99.90
2018-06-17T02:52:49.925Z,99.90
2018-06-17T02:55:18.209Z,99.90
2018-06-17T02:57:46.508Z,99.90
2018-06-17T03:00:14.797Z,99.90
2018-06-17T03:02:43.096Z,99.90
2018-06-17T03:05:11.393Z,99.90
2018-06-17T03:07:39.653Z,99.90
2018-06-17T03:10:07.948Z,99.90
2018-06-17T03:12:36.248Z,99.90
2018-06-17T03:15:04.575Z,99.90
2018-06-17T03:17:32.847Z,99.90
2018-06-17T03:20:01.159Z,99.90
2018-06-17T03:22:29.457Z,99.90
2018-06-17T03:25:03.109Z,99.90
2018-06-17T03:27:36.803Z,99.90
2018-06-17T03:30:10.477Z,99.90
2018-06-17T03:32:44.243Z,99.90
2018-06-17T03:35:18.015Z,99.90
2018-06-17T03:37:46.287Z,99.90
2018-06-17T03:40:14.695Z,99.90
2018-06-17T03:42:43.023Z,99.90
2018-06-17T03:45:11.287Z,99.90
2018-06-17T03:47:39.579Z,99.90
2018-06-17T03:52:35.887Z,99.90
2018-06-17T03:55:04.232Z,99.90
2018-06-17T03:57:32.537Z,99.90
2018-06-17T04:00:00.833Z,99.90
2018-06-17T04:02:29.197Z,99.90
2018-06-17T04:05:02.773Z,99.90
2018-06-17T04:07:31.143Z,99.90
2018-06-17T04:09:59.435Z,99.90
2018-06-17T04:12:27.756Z,99.90
2018-06-17T04:14:56.051Z,99.90
2018-06-17T04:17:24.371Z,99.90
2018-06-17T04:19:52.665Z,99.90
2018-06-17T04:22:20.937Z,99.90
2018-06-17T04:24:49.484Z,99.90
2018-06-17T04:27:17.807Z,99.90
2018-06-17T04:29:46.107Z,99.90
2018-06-17T04:32:14.387Z,99.90
2018-06-17T04:39:38.765Z,99.90
2018-06-17T04:42:07.057Z,99.90
2018-06-17T04:44:35.331Z,99.90
2018-06-17T04:47:03.601Z,99.90
2018-06-17T04:49:32.048Z,99.90
2018-06-17T04:52:00.345Z,99.90
2018-06-17T04:56:56.749Z,99.90
2018-06-17T04:59:25.132Z,99.90
2018-06-17T05:01:53.516Z,99.90
2018-06-17T05:06:49.922Z,99.90
2018-06-17T05:09:18.265Z,99.90
2018-06-17T05:11:46.596Z,99.90
2018-06-17T05:14:14.900Z,99.90
2018-06-17T05:16:43.218Z,99.90
2018-06-17T05:19:11.508Z,99.90
2018-06-17T05:21:39.777Z,99.90
2018-06-17T05:24:08.166Z,99.90
2018-06-17T05:26:36.456Z,99.90
2018-06-17T05:29:04.850Z,99.90
2018-06-17T05:31:33.156Z,99.90
2018-06-17T05:34:01.462Z,99.90
2018-06-17T05:36:29.780Z,99.90
2018-06-17T05:38:58.093Z,99.90
2018-06-17T05:41:26.446Z,99.90
2018-06-17T05:43:54.778Z,99.90
2018-06-17T05:46:23.072Z,99.90
2018-06-17T05:48:51.415Z,99.90
2018-06-17T05:51:19.699Z,99.90
2018-06-17T05:53:47.962Z,99.90
2018-06-17T05:58:44.352Z,99.90
2018-06-17T06:01:12.636Z,99.90
2018-06-17T06:03:41.017Z,99.90
2018-06-17T06:06:09.294Z,99.90
2018-06-17T06:08:37.615Z,99.90
2018-06-17T06:11:05.959Z,99.90
2018-06-17T06:13:34.277Z,99.90
2018-06-17T06:16:02.576Z,99.90
2018-06-17T06:18:30.833Z,99.90
2018-06-17T06:23:27.200Z,99.90
2018-06-17T06:25:55.604Z,99.90
2018-06-17T06:28:23.905Z,99.90
2018-06-17T06:30:52.250Z,99.90
2018-06-17T06:35:48.522Z,99.90
2018-06-17T06:38:16.850Z,99.90
2018-06-17T06:40:45.141Z,99.90
2018-06-17T06:43:13.424Z,99.90
2018-06-17T06:45:41.802Z,99.90
2018-06-17T06:48:10.344Z,99.90
2018-06-17T06:50:38.650Z,99.90
2018-06-17T06:53:07.176Z,99.90
2018-06-17T06:55:35.454Z,99.90
2018-06-17T06:58:03.834Z,99.90
2018-06-17T07:00:32.216Z,99.90
2018-06-17T07:03:11.818Z,99.90
2018-06-17T07:05:51.476Z,99.90
2018-06-17T07:08:31.216Z,99.90
2018-06-17T07:10:59.510Z,99.90
2018-06-17T07:13:27.805Z,99.90
2018-06-17T07:16:07.507Z,99.90
2018-06-17T07:18:37.272Z,99.90
2018-06-17T07:21:05.956Z,99.90
2018-06-17T07:23:34.288Z,99.90
2018-06-17T07:26:47.174Z,99.90
2018-06-17T07:29:29.357Z,99.90
2018-06-17T07:31:57.707Z,99.30
2018-06-17T07:34:26.078Z,99.10
2018-06-17T07:36:54.360Z,98.90
2018-06-17T07:41:34.904Z,97.90
2018-06-17T07:44:03.240Z,95.50
2018-06-17T07:46:31.523Z,92.50
2018-06-17T07:49:44.941Z,92.40
2018-06-17T07:52:25.746Z,94.50
2018-06-17T07:54:54.364Z,96.10
2018-06-17T07:57:23.930Z,95.70
2018-06-17T07:59:52.309Z,91.60
2018-06-17T08:02:20.649Z,92.50
2018-06-17T08:04:48.977Z,91.20
2018-06-17T08:07:17.323Z,89.30
2018-06-17T08:09:45.604Z,93.20
2018-06-17T08:12:14.348Z,94.40
2018-06-17T08:14:42.786Z,95.20
2018-06-17T08:17:11.136Z,94.80
2018-06-17T08:19:39.944Z,94.00
2018-06-17T08:24:36.824Z,90.40
2018-06-17T08:27:05.112Z,87.90
2018-06-17T08:29:33.446Z,87.30
2018-06-17T08:32:01.768Z,90.10
2018-06-17T08:34:30.055Z,84.60
2018-06-17T08:36:58.402Z,88.40
2018-06-17T08:39:26.696Z,86.10
2018-06-17T08:41:55.064Z,86.10
2018-06-17T08:44:23.412Z,87.70
2018-06-17T08:46:51.916Z,88.80
2018-06-17T08:49:20.971Z,89.00
2018-06-17T08:54:17.370Z,88.40
2018-06-17T08:56:45.652Z,86.40
2018-06-17T08:59:13.952Z,87.00
2018-06-17T09:01:42.222Z,84.20
2018-06-17T09:04:10.517Z,81.60
2018-06-17T09:06:38.869Z,81.00
2018-06-17T09:09:09.245Z,84.10
2018-06-17T09:11:37.739Z,85.70
2018-06-17T09:14:06.223Z,90.10
2018-06-17T09:16:34.577Z,88.70
2018-06-17T09:19:02.884Z,83.60
2018-06-17T09:21:31.246Z,84.30
2018-06-17T09:23:59.535Z,82.20
2018-06-17T09:26:27.817Z,80.70
2018-06-17T09:28:56.112Z,83.70
2018-06-17T09:31:24.420Z,83.60
2018-06-17T09:33:52.867Z,85.40
2018-06-17T09:36:21.253Z,84.70
2018-06-17T09:38:49.551Z,85.50
2018-06-17T09:41:17.841Z,80.30
2018-06-17T09:43:46.202Z,78.40
2018-06-17T09:46:15.347Z,78.30
2018-06-17T09:51:11.665Z,78.30
2018-06-17T09:53:39.939Z,76.20
2018-06-17T09:56:08.285Z,73.40
2018-06-17T09:58:36.643Z,72.30
2018-06-17T10:01:04.948Z,74.70
2018-06-17T10:03:33.244Z,76.60
2018-06-17T10:06:01.559Z,74.60
2018-06-17T10:08:29.837Z,72.20
2018-06-17T10:11:08.137Z,73.20
2018-06-17T10:13:37.783Z,69.80
2018-06-17T10:16:06.290Z,72.60
2018-06-17T10:18:34.609Z,76.30
2018-06-17T10:21:03.145Z,77.70
2018-06-17T10:23:31.468Z,79.00
2018-06-17T10:25:59.779Z,79.10
2018-06-17T10:28:29.039Z,76.30
2018-06-17T10:33:26.464Z,75.80
2018-06-17T10:35:54.810Z,70.60
2018-06-17T10:38:23.181Z,66.70
2018-06-17T10:40:51.611Z,68.30
2018-06-17T10:48:18.523Z,67.10
2018-06-17T10:50:46.829Z,69.20
2018-06-17T10:53:15.127Z,75.20
2018-06-17T10:55:43.513Z,75.40
2018-06-17T10:58:11.777Z,74.40
2018-06-17T11:00:40.317Z,75.30
2018-06-17T11:03:08.567Z,74.20
2018-06-17T11:05:36.891Z,70.80
2018-06-17T11:08:05.195Z,69.40
2018-06-17T11:10:33.515Z,69.20
2018-06-17T11:13:01.837Z,68.60
2018-06-17T11:15:30.191Z,67.70
2018-06-17T11:17:58.477Z,69.10
2018-06-17T11:20:26.793Z,70.90
2018-06-17T11:22:55.071Z,73.80
2018-06-17T11:25:23.361Z,75.40
2018-06-17T11:27:51.647Z,76.00
2018-06-17T11:32:47.981Z,75.70
2018-06-17T11:35:16.262Z,76.10
2018-06-17T11:37:44.579Z,76.70
2018-06-17T11:40:12.901Z,73.80
2018-06-17T11:42:41.232Z,73.30
2018-06-17T11:45:09.537Z,72.30
2018-06-17T11:47:37.868Z,70.70
2018-06-17T11:50:06.190Z,67.60
2018-06-17T11:52:35.644Z,67.70
2018-06-17T11:55:04.025Z,68.00
2018-06-17T11:57:32.328Z,67.10
2018-06-17T12:00:00.643Z,66.50
2018-06-17T12:02:28.959Z,64.60
2018-06-17T12:04:57.234Z,68.10
2018-06-17T12:07:25.506Z,69.50
2018-06-17T12:09:53.813Z,67.90
2018-06-17T12:12:22.112Z,69.50
2018-06-17T12:14:50.413Z,64.20
2018-06-17T12:17:18.709Z,66.80
2018-06-17T12:19:47.002Z,63.80
2018-06-17T12:22:15.308Z,67.20
2018-06-17T12:24:43.596Z,67.80
2018-06-17T12:27:11.902Z,62.00
2018-06-17T12:29:40.196Z,65.10
2018-06-17T12:32:08.502Z,64.40
2018-06-17T12:34:36.802Z,65.80
2018-06-17T12:37:05.168Z,65.70
2018-06-17T12:39:33.498Z,67.90
2018-06-17T12:42:01.799Z,68.90
2018-06-17T12:46:58.185Z,70.20
2018-06-17T12:49:26.480Z,68.90
2018-06-17T12:51:54.776Z,69.00
2018-06-17T12:54:23.121Z,68.80
2018-06-17T12:56:51.416Z,66.10
2018-06-17T12:59:19.731Z,66.10
2018-06-17T13:01:48.000Z,65.10
2018-06-17T13:04:16.315Z,65.80
2018-06-17T13:06:44.611Z,65.30
2018-06-17T13:09:12.932Z,61.90
2018-06-17T13:11:41.244Z,62.60
2018-06-17T13:14:09.650Z,63.60
2018-06-17T13:16:38.032Z,64.20
2018-06-17T13:19:06.652Z,66.00
2018-06-17T13:24:03.036Z,66.40
2018-06-17T13:26:31.307Z,67.60
2018-06-17T13:28:59.736Z,70.30
2018-06-17T13:31:28.100Z,70.70
2018-06-17T13:33:56.398Z,72.60
2018-06-17T13:36:24.697Z,74.70
2018-06-17T13:38:53.062Z,77.70
2018-06-17T13:41:21.400Z,79.30
2018-06-17T13:43:49.724Z,80.20
2018-06-17T13:46:18.029Z,82.20
2018-06-17T13:48:46.330Z,80.70
2018-06-17T13:51:14.660Z,80.70
2018-06-17T13:53:42.964Z,80.60
2018-06-17T13:56:11.253Z,76.90
2018-06-17T13:58:39.600Z,77.30
2018-06-17T14:01:07.890Z,77.10
2018-06-17T14:03:36.188Z,75.90
2018-06-17T14:06:04.534Z,75.30
2018-06-17T14:08:32.807Z,74.90
2018-06-17T14:13:29.215Z,74.80
2018-06-17T14:15:57.501Z,75.10
2018-06-17T14:18:25.818Z,73.20
2018-06-17T14:20:54.112Z,74.10
2018-06-17T14:23:22.412Z,76.60
2018-06-17T14:25:50.709Z,78.80
2018-06-17T14:28:19.008Z,78.50
2018-06-17T14:30:47.341Z,81.10
2018-06-17T14:33:15.652Z,82.00
2018-06-17T14:35:43.980Z,83.80
2018-06-17T14:38:12.289Z,83.80
2018-06-17T14:40:45.857Z,84.60
2018-06-17T14:43:19.572Z,81.60
2018-06-17T14:45:53.136Z,79.00
2018-06-17T14:48:28.334Z,79.80
2018-06-17T14:51:02.118Z,74.50
2018-06-17T14:53:30.414Z,72.90
2018-06-17T14:55:58.738Z,71.20
2018-06-17T14:58:27.130Z,71.90
2018-06-17T15:00:55.443Z,73.20
2018-06-17T15:03:23.748Z,72.60
2018-06-17T15:05:52.046Z,75.10
2018-06-17T15:08:20.343Z,77.20
2018-06-17T15:10:48.685Z,78.50
2018-06-17T15:13:17.025Z,80.20
2018-06-17T15:15:45.343Z,79.20
2018-06-17T15:18:13.743Z,79.90
2018-06-17T15:20:41.973Z,80.00
2018-06-17T15:23:10.279Z,82.10
2018-06-17T15:25:38.600Z,81.70
2018-06-17T15:28:06.905Z,83.40
2018-06-17T15:30:35.220Z,83.40
2018-06-17T15:33:09.020Z,82.00
2018-06-17T15:35:42.729Z,82.70
2018-06-17T15:38:16.473Z,81.70
2018-06-17T15:40:50.269Z,81.50
2018-06-17T15:43:18.562Z,83.20
2018-06-17T15:45:46.849Z,83.40
2018-06-17T15:48:15.159Z,82.00
2018-06-17T15:50:43.559Z,81.20
2018-06-17T15:53:11.822Z,82.30
2018-06-17T15:55:40.120Z,82.60
2018-06-17T15:58:08.478Z,80.90
2018-06-17T16:00:36.786Z,80.80
2018-06-17T16:03:05.157Z,82.20
2018-06-17T16:08:01.525Z,76.60
2018-06-17T16:10:29.877Z,78.80
2018-06-17T16:13:03.897Z,80.30
2018-06-17T16:15:37.495Z,77.60
2018-06-17T16:18:11.241Z,76.70
2018-06-17T16:20:44.839Z,78.20
2018-06-17T16:23:13.212Z,77.50
2018-06-17T16:25:41.433Z,79.10
2018-06-17T16:28:09.701Z,81.90
2018-06-17T16:30:38.013Z,83.40
2018-06-17T16:33:06.319Z,82.60
2018-06-17T16:35:34.623Z,85.00
2018-06-17T16:40:30.957Z,83.50
2018-06-17T16:42:59.305Z,81.00
2018-06-17T16:45:27.676Z,79.80
2018-06-17T16:47:55.939Z,77.70
2018-06-17T16:50:24.229Z,75.90
2018-06-17T16:52:57.837Z,71.60
2018-06-17T16:55:31.509Z,72.10
2018-06-17T16:58:05.229Z,72.80
2018-06-17T17:03:01.619Z,75.20
2018-06-17T17:05:29.941Z,77.80
2018-06-17T17:07:58.260Z,79.40
2018-06-17T17:10:26.557Z,76.60
2018-06-17T17:12:54.849Z,75.00
2018-06-17T17:15:23.150Z,75.60
2018-06-17T17:17:51.521Z,76.90
2018-06-17T17:20:19.831Z,78.60
2018-06-17T17:22:48.133Z,79.70
2018-06-17T17:25:16.447Z,81.50
2018-06-17T17:27:44.831Z,83.40
2018-06-17T17:30:13.323Z,84.60
2018-06-17T17:32:46.920Z,85.20
2018-06-17T17:35:20.657Z,85.80
2018-06-17T17:37:54.442Z,86.40
2018-06-17T17:40:28.111Z,83.90
2018-06-17T17:42:56.415Z,78.80
2018-06-17T17:47:53.272Z,76.10
2018-06-17T17:50:21.607Z,78.10
2018-06-17T17:52:49.989Z,78.00
2018-06-17T17:55:18.297Z,79.10
2018-06-17T17:57:46.615Z,75.00
2018-06-17T18:00:14.961Z,76.70
2018-06-17T18:02:43.231Z,81.00
2018-06-17T18:05:11.571Z,82.10
2018-06-17T18:07:39.955Z,82.30
2018-06-17T18:10:08.261Z,84.80
2018-06-17T18:12:36.641Z,85.50
2018-06-17T18:15:05.325Z,87.60
2018-06-17T18:17:33.651Z,87.10
2018-06-17T18:20:01.938Z,88.40
2018-06-17T18:22:30.255Z,89.70
2018-06-17T18:25:03.875Z,90.70
2018-06-17T18:27:37.531Z,90.60
2018-06-17T18:30:11.203Z,91.20
2018-06-17T18:32:44.860Z,91.80
2018-06-17T18:35:18.593Z,92.50
2018-06-17T18:37:46.933Z,92.80
2018-06-17T18:40:15.277Z,93.10
2018-06-17T18:42:43.633Z,93.70
2018-06-17T18:45:11.967Z,94.20
2018-06-17T18:47:40.375Z,94.70
2018-06-17T18:50:08.753Z,95.30
2018-06-17T18:52:37.091Z,95.50
2018-06-17T18:55:05.504Z,95.80
2018-06-17T18:57:33.839Z,96.10
2018-06-17T19:00:02.158Z,96.80
2018-06-17T19:02:30.857Z,97.10
2018-06-17T19:05:00.143Z,97.30
2018-06-17T19:07:28.524Z,97.70
2018-06-17T19:10:02.101Z,97.60
2018-06-17T19:12:35.858Z,97.80
2018-06-17T19:15:09.835Z,98.30
2018-06-17T19:17:43.593Z,98.50
2018-06-17T19:20:11.981Z,98.50
2018-06-17T19:22:40.407Z,98.70
2018-06-17T19:27:36.980Z,99.10
2018-06-17T19:30:05.700Z,99.40
2018-06-17T19:32:34.140Z,99.30
2018-06-17T19:35:02.432Z,99.60
2018-06-17T19:39:58.836Z,99.80
2018-06-17T19:42:27.153Z,99.90
2018-06-17T19:44:55.539Z,99.90
2018-06-17T19:47:23.884Z,99.90
2018-06-17T19:49:57.558Z,99.90
2018-06-17T19:52:31.074Z,99.90
2018-06-17T19:55:04.836Z,99.90
2018-06-17T19:57:38.492Z,99.90
2018-06-17T20:00:12.247Z,99.90
2018-06-17T20:02:40.798Z,99.90
2018-06-17T20:05:09.117Z,99.90
2018-06-17T20:07:37.458Z,99.90
2018-06-17T20:10:06.231Z,99.90
2018-06-17T20:12:34.565Z,99.90
2018-06-17T20:15:02.892Z,99.90
2018-06-17T20:17:31.387Z,99.90
2018-06-17T20:19:59.630Z,99.90
2018-06-17T20:22:28.040Z,99.90
2018-06-17T20:27:24.570Z,99.90
2018-06-17T20:29:52.932Z,99.90
2018-06-17T20:32:26.572Z,99.90
2018-06-17T20:35:00.181Z,99.90
2018-06-17T20:37:33.766Z,99.90
2018-06-17T20:40:07.398Z,99.90
2018-06-17T20:42:41.083Z,99.90
2018-06-17T20:45:09.432Z,99.90
2018-06-17T20:50:05.788Z,99.90
2018-06-17T20:52:34.107Z,99.90
2018-06-17T20:55:02.430Z,99.90
2018-06-17T20:57:30.722Z,99.90
2018-06-17T20:59:59.046Z,99.90
2018-06-17T21:02:27.369Z,99.90
2018-06-17T21:04:55.692Z,99.90
2018-06-17T21:07:24.016Z,99.90
2018-06-17T21:09:52.292Z,99.90
2018-06-17T21:12:20.808Z,99.90
2018-06-17T21:14:49.140Z,99.90
2018-06-17T21:17:17.486Z,99.90
2018-06-17T21:19:51.232Z,99.90
2018-06-17T21:22:24.924Z,99.90
2018-06-17T21:26:02.277Z,99.90
2018-06-17T21:28:30.566Z,99.90
2018-06-17T21:30:58.902Z,99.90
2018-06-17T21:33:27.158Z,99.90
2018-06-17T21:35:55.454Z,99.90
2018-06-17T21:38:23.785Z,99.90
2018-06-17T21:40:52.078Z,99.90
2018-06-17T21:43:20.398Z,99.90
2018-06-17T21:45:48.686Z,99.90
2018-06-17T21:48:16.988Z,99.90
2018-06-17T21:50:45.266Z,99.90
2018-06-17T21:53:13.552Z,99.90
2018-06-17T21:58:09.848Z,99.90
2018-06-17T22:00:38.143Z,99.90
2018-06-17T22:03:06.484Z,99.90
2018-06-17T22:05:34.836Z,99.90
2018-06-17T22:08:08.544Z,99.90
2018-06-17T22:11:44.690Z,99.90
2018-06-17T22:16:51.825Z,99.90
2018-06-17T22:19:20.244Z,99.90
2018-06-17T22:21:48.530Z,99.90
2018-06-17T22:24:16.860Z,99.90
2018-06-17T22:26:45.147Z,99.90
2018-06-17T22:29:13.456Z,99.90
2018-06-17T22:31:41.772Z,99.90
2018-06-17T22:34:10.051Z,99.90
2018-06-17T22:36:38.335Z,99.90
2018-06-17T22:39:08.190Z,99.90
2018-06-17T22:41:36.477Z,99.90
2018-06-17T22:44:04.928Z,99.90
2018-06-17T22:46:33.206Z,99.90
2018-06-17T22:49:01.487Z,99.90
2018-06-17T22:51:29.777Z,99.90
2018-06-17T22:54:09.442Z,99.90
2018-06-17T22:56:43.069Z,99.90
2018-06-17T22:59:16.778Z,99.90
2018-06-17T23:01:50.369Z,99.90
2018-06-17T23:04:24.187Z,99.90
2018-06-17T23:06:57.978Z,99.90
2018-06-17T23:09:38.962Z,99.90
2018-06-17T23:12:07.249Z,99.90
2018-06-17T23:14:35.550Z,99.90
2018-06-17T23:17:03.931Z,99.90
2018-06-17T23:19:32.213Z,99.90
2018-06-17T23:22:00.484Z,99.90
2018-06-17T23:24:28.762Z,99.90
2018-06-17T23:26:57.052Z,99.90
2018-06-17T23:29:25.389Z,99.90
2018-06-17T23:31:53.676Z,99.90
2018-06-17T23:36:49.946Z,99.90
2018-06-17T23:39:18.255Z,99.90
2018-06-17T23:41:46.538Z,99.90
2018-06-17T23:44:14.808Z,99.90
2018-06-17T23:46:48.536Z,99.90
2018-06-17T23:49:22.062Z,99.90
2018-06-17T23:51:55.749Z,99.90
2018-06-17T23:54:29.471Z,99.90
2018-06-17T23:56:57.808Z,99.90
2018-06-17T23:59:26.090Z,99.90
